Time;durP1;ratioP1;P1;durP2;ratioP2;P2;SDS_P1;SDS_P2;PMS_P1;PMS_P2;Temp;Humidity;BMP_temperature;BMP_pressure;BME280_temperature;BME280_humidity;BME280_pressure;Samples;Min_cycle;Max_cycle;Signal;HPM_P1;HPM_P2
2021/10/16 00:01:40;;;;;;;12.60;7.63;;;9.10;92.80;;;;;;5042549;28;20022;-69
2021/10/16 00:04:05;;;;;;;10.35;6.75;;;9.10;92.80;;;;;;5039350;28;20357;-69
2021/10/16 00:06:31;;;;;;;10.57;7.20;;;9.20;92.90;;;;;;5044193;28;20033;-69
2021/10/16 00:08:56;;;;;;;14.18;7.63;;;9.10;92.90;;;;;;5045437;28;20029;-69
2021/10/16 00:11:22;;;;;;;11.48;7.15;;;9.10;92.90;;;;;;5049707;28;20138;-69
2021/10/16 00:13:47;;;;;;;11.38;7.20;;;9.10;92.90;;;;;;5047564;28;20074;-69
2021/10/16 00:16:13;;;;;;;9.45;6.20;;;9.10;93.00;;;;;;5049681;28;20056;-69
2021/10/16 00:18:38;;;;;;;10.13;6.97;;;9.20;93.00;;;;;;5049409;28;20025;-69
2021/10/16 00:21:04;;;;;;;10.07;6.97;;;9.20;93.00;;;;;;5049775;28;20543;-69
2021/10/16 00:23:30;;;;;;;11.27;6.85;;;9.20;93.00;;;;;;5048590;28;20017;-69
2021/10/16 00:25:56;;;;;;;10.48;6.50;;;9.20;93.00;;;;;;5048498;28;20104;-69
2021/10/16 00:28:22;;;;;;;10.35;6.47;;;9.20;93.10;;;;;;5049629;28;20068;-69
2021/10/16 00:30:48;;;;;;;10.50;6.88;;;9.20;93.10;;;;;;5047542;28;20166;-69
2021/10/16 00:33:15;;;;;;;9.23;6.35;;;9.30;93.10;;;;;;5039793;28;20024;-69
2021/10/16 00:35:41;;;;;;;8.32;6.28;;;9.30;93.10;;;;;;5048825;28;20033;-69
2021/10/16 00:38:07;;;;;;;10.27;6.47;;;9.30;93.10;;;;;;5043121;28;20026;-69
2021/10/16 00:40:33;;;;;;;14.10;7.13;;;9.30;93.10;;;;;;5049566;28;20025;-69
2021/10/16 00:42:58;;;;;;;9.50;6.82;;;9.40;93.20;;;;;;5047234;28;20025;-69
2021/10/16 00:45:25;;;;;;;8.43;6.85;;;9.40;93.20;;;;;;5049847;28;20138;-69
2021/10/16 00:47:51;;;;;;;9.88;6.60;;;9.40;93.20;;;;;;5030209;28;20078;-69
2021/10/16 00:50:18;;;;;;;9.43;6.60;;;9.50;93.20;;;;;;5047866;28;20037;-69
2021/10/16 00:52:46;;;;;;;9.90;7.18;;;9.40;93.20;;;;;;5047862;28;20484;-69
2021/10/16 00:55:13;;;;;;;11.10;7.03;;;9.50;93.20;;;;;;5044402;28;20084;-69
2021/10/16 00:57:39;;;;;;;8.02;6.30;;;9.50;93.20;;;;;;5030927;28;20512;-69
2021/10/16 01:00:08;;;;;;;10.18;6.80;;;9.50;93.20;;;;;;5049249;28;20033;-68
2021/10/16 01:02:34;;;;;;;10.13;7.22;;;9.50;93.20;;;;;;5040570;28;20064;-69
2021/10/16 01:05:01;;;;;;;12.00;7.20;;;9.50;93.20;;;;;;5045777;28;20029;-69
2021/10/16 01:07:28;;;;;;;9.05;6.75;;;9.50;93.20;;;;;;5029298;28;20451;-69
2021/10/16 01:09:54;;;;;;;10.70;6.68;;;9.50;93.20;;;;;;5032485;28;20021;-68
2021/10/16 01:12:20;;;;;;;11.52;7.80;;;9.50;93.20;;;;;;5047290;28;20431;-69
2021/10/16 01:15:02;;;;;;;12.77;7.32;;;9.50;93.00;;;;;;5047177;28;20037;-68
2021/10/16 01:17:30;;;;;;;10.15;6.90;;;9.40;93.10;;;;;;5049325;28;20024;-68
2021/10/16 01:20:04;;;;;;;8.40;6.20;;;9.40;93.10;;;;;;5049305;28;20031;-69
2021/10/16 01:22:32;;;;;;;10.70;7.13;;;9.40;93.30;;;;;;5048790;28;20108;-68
2021/10/16 01:24:59;;;;;;;10.98;6.78;;;9.40;93.30;;;;;;5030432;28;20033;-69
2021/10/16 01:27:25;;;;;;;8.90;6.65;;;9.40;93.30;;;;;;5048658;28;20029;-69
2021/10/16 01:29:50;;;;;;;11.77;7.90;;;9.40;93.30;;;;;;5049922;28;20123;-68
2021/10/16 01:32:16;;;;;;;9.60;6.85;;;9.50;93.30;;;;;;5048668;28;20041;-68
2021/10/16 01:34:43;;;;;;;9.85;7.43;;;9.50;93.30;;;;;;5048556;28;20041;-68
2021/10/16 01:37:08;;;;;;;12.05;6.97;;;9.50;93.30;;;;;;5025438;28;20021;-68
2021/10/16 01:39:34;;;;;;;10.77;7.25;;;9.50;93.30;;;;;;5037538;28;20040;-69
2021/10/16 01:41:59;;;;;;;10.52;7.32;;;9.50;93.40;;;;;;5048878;28;20146;-68
2021/10/16 01:44:26;;;;;;;9.93;7.38;;;9.50;93.40;;;;;;5047798;28;20086;-69
2021/10/16 01:46:51;;;;;;;11.73;6.47;;;9.50;93.40;;;;;;5048590;28;20033;-68
2021/10/16 01:49:19;;;;;;;12.30;7.70;;;9.50;93.40;;;;;;5048823;28;20032;-68
2021/10/16 01:51:48;;;;;;;12.57;7.93;;;9.50;93.50;;;;;;5048905;28;20036;-68
2021/10/16 01:54:14;;;;;;;12.80;7.70;;;9.50;93.40;;;;;;5046585;28;20536;-68
2021/10/16 01:56:39;;;;;;;10.52;7.43;;;9.50;93.50;;;;;;5035435;28;20025;-69
2021/10/16 01:59:13;;;;;;;10.85;7.85;;;9.50;93.50;;;;;;5046544;28;20047;-68
2021/10/16 02:01:39;;;;;;;17.30;9.40;;;9.60;93.50;;;;;;5045161;28;20025;-68
2021/10/16 02:04:04;;;;;;;15.02;10.07;;;9.60;93.50;;;;;;5038392;28;20047;-69
2021/10/16 02:06:30;;;;;;;14.80;10.18;;;9.60;93.50;;;;;;5052371;28;20521;-69
2021/10/16 02:08:55;;;;;;;18.75;11.07;;;9.60;93.50;;;;;;5051256;28;20032;-69
2021/10/16 02:11:21;;;;;;;18.80;10.52;;;9.60;93.50;;;;;;5034680;28;20060;-68
2021/10/16 02:13:46;;;;;;;17.40;11.70;;;9.60;93.50;;;;;;5050596;28;20036;-68
2021/10/16 02:16:12;;;;;;;18.60;12.23;;;9.60;93.60;;;;;;5052515;28;20025;-68
2021/10/16 02:18:38;;;;;;;17.73;11.60;;;9.60;93.50;;;;;;5052573;28;20025;-68
2021/10/16 02:21:03;;;;;;;22.77;13.07;;;9.70;93.60;;;;;;5052314;28;20066;-68
2021/10/16 02:23:29;;;;;;;17.65;11.20;;;9.70;93.60;;;;;;5050631;28;20368;-69
2021/10/16 02:25:54;;;;;;;18.63;11.52;;;9.70;93.60;;;;;;5052511;28;20036;-69
2021/10/16 02:28:20;;;;;;;16.35;11.02;;;9.70;93.60;;;;;;5051883;28;20069;-69
2021/10/16 02:30:45;;;;;;;18.00;11.65;;;9.70;93.70;;;;;;5052158;28;20100;-69
2021/10/16 02:33:11;;;;;;;19.95;12.27;;;9.70;93.70;;;;;;5051043;28;20480;-68
2021/10/16 02:35:37;;;;;;;21.05;11.70;;;9.70;93.70;;;;;;5051460;28;20024;-69
2021/10/16 02:38:02;;;;;;;23.38;13.30;;;9.80;93.70;;;;;;5048042;28;20021;-68
2021/10/16 02:40:28;;;;;;;16.65;12.00;;;9.70;93.70;;;;;;5050207;28;20036;-69
2021/10/16 02:42:53;;;;;;;17.63;11.85;;;9.70;93.70;;;;;;5047587;28;20029;-68
2021/10/16 02:45:19;;;;;;;19.17;12.75;;;9.70;93.70;;;;;;5051708;28;20029;-69
2021/10/16 02:47:46;;;;;;;19.65;12.60;;;9.70;93.70;;;;;;5033659;28;20129;-68
2021/10/16 02:50:12;;;;;;;17.75;12.10;;;9.70;93.70;;;;;;5029852;28;20033;-69
2021/10/16 02:52:37;;;;;;;22.58;13.43;;;9.80;93.80;;;;;;5045344;28;20373;-69
2021/10/16 02:55:03;;;;;;;23.20;13.65;;;9.80;93.80;;;;;;5042601;28;20033;-69
2021/10/16 02:57:29;;;;;;;20.55;12.50;;;9.80;93.80;;;;;;5042332;28;20034;-68
2021/10/16 02:59:54;;;;;;;27.08;14.10;;;9.80;93.80;;;;;;5039682;28;20097;-68
2021/10/16 03:02:20;;;;;;;24.48;15.10;;;9.80;93.80;;;;;;5039909;28;20021;-69
2021/10/16 03:04:45;;;;;;;30.70;16.27;;;9.70;93.80;;;;;;5050704;28;20084;-68
2021/10/16 03:07:11;;;;;;;33.10;17.88;;;9.70;93.80;;;;;;5050484;28;20485;-68
2021/10/16 03:09:37;;;;;;;33.70;19.42;;;9.70;93.90;;;;;;5047018;28;20025;-68
2021/10/16 03:12:03;;;;;;;30.65;17.52;;;9.70;93.90;;;;;;5048651;28;20029;-68
2021/10/16 03:14:28;;;;;;;29.67;16.40;;;9.70;93.90;;;;;;5050267;28;20065;-68
2021/10/16 03:16:54;;;;;;;27.75;16.10;;;9.70;93.90;;;;;;5049297;28;20051;-69
2021/10/16 03:19:19;;;;;;;30.02;17.48;;;9.70;93.90;;;;;;5033061;28;20025;-68
2021/10/16 03:21:45;;;;;;;28.90;16.33;;;9.70;94.00;;;;;;5051666;28;20025;-69
2021/10/16 03:24:11;;;;;;;29.55;16.48;;;9.70;94.00;;;;;;5049474;28;20049;-68
2021/10/16 03:26:36;;;;;;;29.40;17.77;;;9.80;94.00;;;;;;5033299;28;20390;-69
2021/10/16 03:29:02;;;;;;;35.38;19.33;;;9.70;94.00;;;;;;5051525;28;20068;-69
2021/10/16 03:31:28;;;;;;;35.00;18.88;;;9.80;94.10;;;;;;5050089;28;20029;-68
2021/10/16 03:33:53;;;;;;;35.13;19.60;;;9.70;94.00;;;;;;5047950;28;20029;-68
2021/10/16 03:36:19;;;;;;;37.70;20.17;;;9.70;94.10;;;;;;5050550;28;20036;-68
2021/10/16 03:38:45;;;;;;;40.03;21.63;;;9.70;94.10;;;;;;5046860;28;20474;-69
2021/10/16 03:41:10;;;;;;;38.00;21.38;;;9.80;94.10;;;;;;5040238;28;20021;-68
2021/10/16 03:43:36;;;;;;;37.63;20.63;;;9.80;94.10;;;;;;5049383;28;20025;-68
2021/10/16 03:46:01;;;;;;;41.75;21.25;;;9.80;94.10;;;;;;5051094;28;20060;-68
2021/10/16 03:48:27;;;;;;;43.13;22.30;;;9.70;94.10;;;;;;5049719;28;20064;-68
2021/10/16 03:50:53;;;;;;;42.67;21.63;;;9.70;94.10;;;;;;5022557;28;20462;-68
2021/10/16 03:53:18;;;;;;;33.95;19.08;;;9.70;94.20;;;;;;5048985;28;20393;-69
2021/10/16 03:55:44;;;;;;;37.20;19.77;;;9.70;94.20;;;;;;5042870;28;20026;-68
2021/10/16 03:58:09;;;;;;;39.47;20.67;;;9.80;94.20;;;;;;5048453;28;20013;-69
2021/10/16 04:00:35;;;;;;;40.85;21.33;;;9.80;94.20;;;;;;5048167;28;20462;-68
2021/10/16 04:03:05;;;;;;;43.60;22.60;;;9.70;94.20;;;;;;5044841;28;20032;-68
2021/10/16 04:05:35;;;;;;;44.97;23.42;;;9.70;94.20;;;;;;5050902;28;20120;-68
2021/10/16 04:08:01;;;;;;;42.58;22.52;;;9.70;94.20;;;;;;5049133;28;20104;-68
2021/10/16 04:10:27;;;;;;;37.95;21.30;;;9.70;94.20;;;;;;5049630;28;20029;-68
2021/10/16 04:12:52;;;;;;;40.03;21.60;;;9.60;94.20;;;;;;5026279;28;20036;-68
2021/10/16 04:15:18;;;;;;;40.47;20.95;;;9.60;94.30;;;;;;5041118;28;20485;-68
2021/10/16 04:17:45;;;;;;;39.25;21.30;;;9.60;94.30;;;;;;5048302;28;20049;-68
2021/10/16 04:20:12;;;;;;;41.63;22.35;;;9.60;94.30;;;;;;5045198;28;20020;-68
2021/10/16 04:22:37;;;;;;;37.80;19.83;;;9.60;94.30;;;;;;5016956;28;20041;-68
2021/10/16 04:27:31;;;;;;;41.45;21.80;;;9.60;94.30;;;;;;5026332;28;20046;-64
2021/10/16 04:29:56;;;;;;;37.72;20.65;;;9.60;94.30;;;;;;5028915;28;20032;-64
2021/10/16 04:32:22;;;;;;;37.70;20.92;;;9.60;94.40;;;;;;5029388;28;20053;-66
2021/10/16 04:34:48;;;;;;;41.15;21.73;;;9.60;94.40;;;;;;5027284;28;20033;-66
2021/10/16 04:37:15;;;;;;;35.80;20.27;;;9.60;94.40;;;;;;5029605;28;20486;-65
2021/10/16 04:39:40;;;;;;;46.88;20.98;;;9.50;94.40;;;;;;5028334;28;20477;-65
2021/10/16 04:42:06;;;;;;;39.75;20.42;;;9.50;94.40;;;;;;5029009;28;20111;-66
2021/10/16 04:44:33;;;;;;;37.00;20.35;;;9.50;94.40;;;;;;5027752;28;20030;-66
2021/10/16 04:46:58;;;;;;;41.42;21.27;;;9.50;94.50;;;;;;5028274;28;20048;-65
2021/10/16 04:49:24;;;;;;;41.85;21.38;;;9.50;94.50;;;;;;5028859;28;20025;-66
2021/10/16 04:51:50;;;;;;;42.83;22.48;;;9.50;94.50;;;;;;5011428;28;20037;-65
2021/10/16 04:54:15;;;;;;;43.53;22.00;;;9.50;94.50;;;;;;5026592;28;20094;-65
2021/10/16 04:56:41;;;;;;;45.97;22.70;;;9.50;94.50;;;;;;5025724;28;20454;-65
2021/10/16 04:59:06;;;;;;;49.88;23.67;;;9.50;94.50;;;;;;5002679;28;20076;-66
2021/10/16 05:01:32;;;;;;;45.03;22.58;;;9.40;94.50;;;;;;5026651;28;20032;-64
2021/10/16 05:03:57;;;;;;;46.53;23.23;;;9.40;94.50;;;;;;5031658;28;20033;-65
2021/10/16 05:06:23;;;;;;;45.20;23.30;;;9.40;94.50;;;;;;5028704;28;20033;-64
2021/10/16 05:08:48;;;;;;;44.50;22.63;;;9.40;94.50;;;;;;5029543;28;20521;-65
2021/10/16 05:11:14;;;;;;;53.58;25.63;;;9.30;94.50;;;;;;5028436;28;20088;-64
2021/10/16 05:13:40;;;;;;;47.50;23.15;;;9.30;94.60;;;;;;5027589;28;20033;-64
2021/10/16 05:16:05;;;;;;;46.25;23.67;;;9.30;94.60;;;;;;5028501;28;20401;-66
2021/10/16 05:18:34;;;;;;;51.03;23.35;;;9.30;94.60;;;;;;5028029;28;20103;-65
2021/10/16 05:20:59;;;;;;;53.22;23.35;;;9.20;94.60;;;;;;5028381;28;20343;-66
2021/10/16 05:23:26;;;;;;;43.38;22.48;;;9.20;94.60;;;;;;5027969;28;20040;-64
2021/10/16 05:25:52;;;;;;;45.63;22.38;;;9.20;94.70;;;;;;5026421;28;20074;-64
2021/10/16 05:28:17;;;;;;;47.55;23.38;;;9.20;94.70;;;;;;5030514;28;20124;-65
2021/10/16 05:30:43;;;;;;;49.83;23.50;;;9.20;94.70;;;;;;5029606;28;20500;-65
2021/10/16 05:33:08;;;;;;;54.05;24.42;;;9.20;94.80;;;;;;5028956;28;20536;-65
2021/10/16 05:35:34;;;;;;;48.10;23.67;;;9.20;94.80;;;;;;5028755;28;20044;-65
2021/10/16 05:38:00;;;;;;;48.33;23.58;;;9.20;94.80;;;;;;5031902;28;20022;-65
2021/10/16 05:40:25;;;;;;;53.85;25.52;;;9.20;94.80;;;;;;5031873;28;20022;-66
2021/10/16 05:42:51;;;;;;;53.85;25.08;;;9.20;94.80;;;;;;5030638;28;20056;-65
2021/10/16 05:45:16;;;;;;;47.03;23.02;;;9.10;94.80;;;;;;5032903;28;20034;-66
2021/10/16 05:47:42;;;;;;;47.17;22.27;;;9.10;94.90;;;;;;5031254;28;20474;-66
2021/10/16 05:50:09;;;;;;;52.70;22.50;;;9.20;94.90;;;;;;5029175;28;20548;-65
2021/10/16 05:52:35;;;;;;;48.78;22.73;;;9.10;94.90;;;;;;5012831;28;20030;-65
2021/10/16 05:55:01;;;;;;;45.22;22.70;;;9.20;94.90;;;;;;5030302;28;20025;-66
2021/10/16 05:57:27;;;;;;;51.78;21.77;;;9.10;94.90;;;;;;5031721;28;20037;-66
2021/10/16 05:59:53;;;;;;;43.20;20.35;;;9.10;94.90;;;;;;5032350;28;20014;-66
2021/10/16 06:02:18;;;;;;;41.55;19.70;;;9.00;94.90;;;;;;5024265;28;20061;-66
2021/10/16 06:04:44;;;;;;;39.67;20.02;;;9.00;94.90;;;;;;5030314;28;20096;-65
2021/10/16 06:07:09;;;;;;;41.33;20.15;;;9.00;95.00;;;;;;5011490;28;20045;-65
2021/10/16 06:09:35;;;;;;;38.08;18.45;;;9.10;95.00;;;;;;5026855;28;20029;-65
2021/10/16 06:12:00;;;;;;;44.55;20.05;;;9.00;95.00;;;;;;5026260;28;20030;-66
2021/10/16 06:14:26;;;;;;;37.83;19.10;;;9.00;95.00;;;;;;5012867;28;20368;-65
2021/10/16 06:16:51;;;;;;;35.88;18.20;;;9.00;95.10;;;;;;5030633;28;20096;-65
2021/10/16 06:19:18;;;;;;;40.13;19.52;;;9.00;95.10;;;;;;5031863;28;20064;-65
2021/10/16 06:21:44;;;;;;;38.72;19.17;;;9.00;95.10;;;;;;5031226;28;20072;-65
2021/10/16 06:24:09;;;;;;;42.03;19.50;;;9.10;95.10;;;;;;5030695;28;20029;-65
2021/10/16 06:26:35;;;;;;;41.65;19.92;;;9.10;95.10;;;;;;5024762;28;20041;-65
2021/10/16 06:29:00;;;;;;;41.75;20.58;;;9.10;95.20;;;;;;5027266;28;20029;-65
2021/10/16 06:31:26;;;;;;;47.25;20.88;;;9.10;95.10;;;;;;5031292;28;20714;-66
2021/10/16 06:33:52;;;;;;;41.75;20.45;;;9.10;95.20;;;;;;5029770;28;20041;-65
2021/10/16 06:36:17;;;;;;;47.33;21.77;;;9.10;95.20;;;;;;5031788;28;20021;-66
2021/10/16 06:38:43;;;;;;;44.85;21.00;;;9.10;95.10;;;;;;5003363;28;20029;-65
2021/10/16 06:41:08;;;;;;;44.03;19.75;;;9.10;95.10;;;;;;5025956;28;20065;-67
2021/10/16 06:43:34;;;;;;;49.53;20.33;;;9.10;95.10;;;;;;5030129;28;20029;-67
2021/10/16 06:45:59;;;;;;;50.17;21.08;;;9.10;95.10;;;;;;5031277;28;20052;-66
2021/10/16 06:48:25;;;;;;;47.20;19.73;;;9.10;95.10;;;;;;5012427;28;20029;-66
2021/10/16 06:50:51;;;;;;;44.30;19.30;;;9.10;95.20;;;;;;5025907;28;20088;-66
2021/10/16 06:53:16;;;;;;;46.00;19.50;;;9.10;95.20;;;;;;5009855;28;20486;-66
2021/10/16 06:55:42;;;;;;;45.47;19.45;;;9.20;95.20;;;;;;5022650;28;20041;-66
2021/10/16 06:58:08;;;;;;;43.90;18.48;;;9.10;95.20;;;;;;5027563;28;20021;-66
2021/10/16 07:00:34;;;;;;;39.17;17.75;;;9.10;95.20;;;;;;5031983;28;20378;-67
2021/10/16 07:03:01;;;;;;;41.00;17.52;;;9.20;95.30;;;;;;5029445;28;20026;-67
2021/10/16 07:05:27;;;;;;;43.63;17.45;;;9.20;95.20;;;;;;5030548;28;20385;-67
2021/10/16 07:07:53;;;;;;;37.08;16.88;;;9.20;95.20;;;;;;5030361;28;20037;-66
2021/10/16 07:10:19;;;;;;;34.45;17.17;;;9.20;95.20;;;;;;5029900;28;20053;-67
2021/10/16 07:12:44;;;;;;;36.38;16.35;;;9.20;95.20;;;;;;5028534;28;20048;-67
2021/10/16 07:15:10;;;;;;;34.55;15.57;;;9.20;95.20;;;;;;5029587;28;20026;-67
2021/10/16 07:17:36;;;;;;;33.08;15.68;;;9.20;95.20;;;;;;5031072;28;20048;-66
2021/10/16 07:20:04;;;;;;;30.23;14.82;;;9.20;95.30;;;;;;5032755;28;20021;-66
2021/10/16 07:22:29;;;;;;;28.33;13.75;;;9.20;95.10;;;;;;5031599;28;20481;-66
2021/10/16 07:24:55;;;;;;;25.52;13.65;;;9.10;95.30;;;;;;5030201;28;20037;-65
2021/10/16 07:27:20;;;;;;;27.45;14.95;;;9.10;95.20;;;;;;4998191;28;20477;-67
2021/10/16 07:29:46;;;;;;;27.30;14.40;;;9.10;95.20;;;;;;4996467;28;20140;-65
2021/10/16 07:32:12;;;;;;;23.58;13.00;;;9.10;95.20;;;;;;5030859;28;20034;-65
2021/10/16 07:34:37;;;;;;;29.40;14.73;;;9.10;95.20;;;;;;5030784;28;20056;-65
2021/10/16 07:37:03;;;;;;;28.63;14.70;;;9.10;95.20;;;;;;5031688;28;20029;-67
2021/10/16 07:39:29;;;;;;;28.27;14.30;;;9.10;95.10;;;;;;5028820;28;20072;-67
2021/10/16 07:41:54;;;;;;;28.85;13.95;;;9.10;95.00;;;;;;5008619;28;20080;-66
2021/10/16 07:44:20;;;;;;;26.70;13.07;;;9.10;95.30;;;;;;5029985;28;20041;-66
2021/10/16 07:46:46;;;;;;;32.03;15.43;;;9.00;95.20;;;;;;5030079;28;20489;-65
2021/10/16 07:49:11;;;;;;;27.98;13.95;;;9.10;95.20;;;;;;5017391;28;20439;-66
2021/10/16 07:51:38;;;;;;;27.92;13.68;;;9.10;95.20;;;;;;5030972;28;20029;-66
2021/10/16 07:54:03;;;;;;;30.15;14.38;;;9.10;95.20;;;;;;5021648;28;20075;-66
2021/10/16 07:56:29;;;;;;;25.25;14.20;;;9.10;95.20;;;;;;5000369;28;20473;-65
2021/10/16 07:58:55;;;;;;;28.30;13.13;;;9.20;95.30;;;;;;5031985;28;20096;-66
2021/10/16 08:01:20;;;;;;;25.80;12.68;;;9.20;95.20;;;;;;5030557;28;20025;-67
2021/10/16 08:03:46;;;;;;;23.88;12.68;;;9.20;95.20;;;;;;5029899;28;20071;-66
2021/10/16 08:06:12;;;;;;;26.95;12.63;;;9.20;95.20;;;;;;5014693;28;20028;-66
2021/10/16 08:08:37;;;;;;;22.90;12.60;;;9.30;95.20;;;;;;5031783;28;20060;-68
2021/10/16 08:11:03;;;;;;;23.25;13.15;;;9.30;95.20;;;;;;5028988;28;20148;-71
2021/10/16 08:13:30;;;;;;;21.98;12.52;;;9.30;95.20;;;;;;5030690;28;20083;-68
2021/10/16 08:15:56;;;;;;;21.83;12.00;;;9.30;95.20;;;;;;5019805;28;20025;-66
2021/10/16 08:18:22;;;;;;;23.98;11.45;;;9.30;95.20;;;;;;5031061;28;20037;-68
2021/10/16 08:20:48;;;;;;;18.73;11.05;;;9.40;95.20;;;;;;5012772;28;20052;-67
2021/10/16 08:23:14;;;;;;;21.88;11.98;;;9.30;95.20;;;;;;5025916;28;20405;-68
2021/10/16 08:25:40;;;;;;;19.95;10.98;;;9.30;95.20;;;;;;5027907;28;20033;-67
2021/10/16 08:28:11;;;;;;;21.17;11.63;;;9.30;95.10;;;;;;5026030;28;20409;-67
2021/10/16 08:30:39;;;;;;;20.40;11.60;;;9.40;95.20;;;;;;5029218;28;20029;-65
2021/10/16 08:33:05;;;;;;;18.42;10.82;;;9.40;95.20;;;;;;5008396;28;20031;-67
2021/10/16 08:35:30;;;;;;;19.90;11.23;;;9.40;95.20;;;;;;5029812;28;20033;-66
2021/10/16 08:37:56;;;;;;;20.58;11.52;;;9.40;95.20;;;;;;5028202;28;20030;-67
2021/10/16 08:40:25;;;;;;;20.90;11.90;;;9.40;95.10;;;;;;5029664;28;20083;-67
2021/10/16 08:42:51;;;;;;;20.48;11.10;;;9.40;95.30;;;;;;5028574;28;20302;-66
2021/10/16 08:45:17;;;;;;;20.55;11.23;;;9.40;95.10;;;;;;5029653;28;20039;-67
2021/10/16 08:47:44;;;;;;;20.02;11.63;;;9.40;95.10;;;;;;5023698;28;20096;-67
2021/10/16 08:50:11;;;;;;;18.55;10.88;;;9.40;95.10;;;;;;5030302;28;20079;-67
2021/10/16 08:52:37;;;;;;;18.77;11.10;;;9.50;95.20;;;;;;5028640;28;20052;-66
2021/10/16 08:55:04;;;;;;;18.85;11.25;;;9.50;95.20;;;;;;5026343;28;20128;-66
2021/10/16 08:57:35;;;;;;;18.77;10.35;;;9.60;95.10;;;;;;5011682;28;20094;-66
2021/10/16 09:00:39;;;;;;;19.27;11.07;;;9.60;95.20;;;;;;5028176;28;20358;-68
2021/10/16 09:03:27;;;;;;;19.52;10.95;;;9.70;95.20;;;;;;5028152;28;20029;-66
2021/10/16 09:06:04;;;;;;;19.50;11.20;;;9.70;95.10;;;;;;5024983;28;20121;-66
2021/10/16 09:09:07;;;;;;;21.63;11.80;;;9.70;94.90;;;;;;5029908;28;20060;-66
2021/10/16 09:11:35;;;;;;;21.98;12.25;;;9.70;94.90;;;;;;5032147;28;20047;-66
2021/10/16 09:14:03;;;;;;;20.52;11.98;;;9.70;94.90;;;;;;5015224;28;20033;-67
2021/10/16 09:16:31;;;;;;;18.63;10.80;;;9.70;95.00;;;;;;5031582;28;20490;-67
2021/10/16 09:18:59;;;;;;;17.95;11.23;;;9.70;95.00;;;;;;5033908;28;20385;-66
2021/10/16 09:21:27;;;;;;;19.55;11.90;;;9.70;95.00;;;;;;5034431;28;20022;-66
2021/10/16 09:24:11;;;;;;;20.85;12.20;;;9.70;95.00;;;;;;5032701;28;20021;-67
2021/10/16 09:26:39;;;;;;;20.20;11.10;;;9.70;95.10;;;;;;5024440;28;20072;-67
2021/10/16 09:29:08;;;;;;;19.42;11.75;;;9.80;95.10;;;;;;5034644;28;20021;-66
2021/10/16 09:31:40;;;;;;;20.00;11.77;;;9.80;95.10;;;;;;5033728;28;20497;-66
2021/10/16 09:34:06;;;;;;;18.55;11.40;;;9.90;95.10;;;;;;5033261;28;20028;-66
2021/10/16 09:36:32;;;;;;;18.67;11.50;;;9.90;95.00;;;;;;5034136;28;20026;-66
2021/10/16 09:38:58;;;;;;;20.60;11.82;;;9.90;95.00;;;;;;5033912;28;20053;-65
2021/10/16 09:41:38;;;;;;;19.45;12.02;;;9.90;94.80;;;;;;5032416;28;20056;-66
2021/10/16 09:44:20;;;;;;;20.05;11.73;;;10.00;94.90;;;;;;5017368;28;20033;-65
2021/10/16 09:47:04;;;;;;;20.10;11.57;;;10.00;94.90;;;;;;5031863;28;20095;-66
2021/10/16 09:49:37;;;;;;;21.45;12.38;;;10.00;94.90;;;;;;5033250;28;20529;-65
2021/10/16 09:52:05;;;;;;;19.50;11.52;;;9.90;94.80;;;;;;5003860;28;20425;-66
2021/10/16 09:54:34;;;;;;;18.33;12.05;;;10.00;94.90;;;;;;5017455;28;20038;-65
2021/10/16 09:57:05;;;;;;;18.98;12.18;;;10.10;94.80;;;;;;5014932;28;20045;-66
2021/10/16 09:59:32;;;;;;;18.73;12.50;;;10.10;94.60;;;;;;5030053;28;20456;-66
2021/10/16 10:02:00;;;;;;;19.63;11.40;;;10.00;94.50;;;;;;5033583;28;20051;-66
2021/10/16 10:04:26;;;;;;;18.60;11.80;;;10.00;94.60;;;;;;5032588;28;20109;-65
2021/10/16 10:06:56;;;;;;;17.80;11.93;;;10.10;94.70;;;;;;5030730;28;20127;-66
2021/10/16 10:09:23;;;;;;;18.42;12.30;;;10.10;94.60;;;;;;5030847;28;20420;-66
2021/10/16 10:11:52;;;;;;;18.40;11.57;;;10.20;94.60;;;;;;5016346;28;20425;-66
2021/10/16 10:14:19;;;;;;;18.02;11.45;;;10.30;94.70;;;;;;5008538;28;20029;-65
2021/10/16 10:16:47;;;;;;;19.83;12.18;;;10.30;94.60;;;;;;5032289;28;20097;-66
2021/10/16 10:19:13;;;;;;;16.67;11.30;;;10.40;94.60;;;;;;5033009;28;20048;-66
2021/10/16 10:21:39;;;;;;;18.00;11.32;;;10.40;94.50;;;;;;5032690;28;20021;-67
2021/10/16 10:24:08;;;;;;;16.65;10.57;;;10.50;94.50;;;;;;5031060;28;20065;-65
2021/10/16 10:26:39;;;;;;;18.92;11.65;;;10.60;94.50;;;;;;5022855;28;20030;-66
2021/10/16 10:29:10;;;;;;;16.60;11.00;;;10.60;94.60;;;;;;5029919;28;20113;-66
2021/10/16 10:31:45;;;;;;;17.60;11.50;;;10.70;94.60;;;;;;5024583;28;20072;-66
2021/10/16 10:34:20;;;;;;;14.88;10.88;;;10.80;94.50;;;;;;5028856;28;20033;-66
2021/10/16 10:36:50;;;;;;;17.20;10.57;;;10.90;94.40;;;;;;5031987;28;20017;-66
2021/10/16 10:39:34;;;;;;;16.55;11.18;;;10.90;94.40;;;;;;5028908;28;20033;-66
2021/10/16 10:42:08;;;;;;;15.68;10.63;;;11.00;94.30;;;;;;5015179;28;20409;-65
2021/10/16 10:44:41;;;;;;;15.40;10.68;;;11.10;94.20;;;;;;5031166;28;20037;-66
2021/10/16 10:47:24;;;;;;;15.25;10.65;;;11.20;94.20;;;;;;5032073;28;20304;-66
2021/10/16 10:49:55;;;;;;;15.35;10.57;;;11.30;94.20;;;;;;5013284;28;20547;-66
2021/10/16 10:52:22;;;;;;;15.90;11.35;;;11.30;94.10;;;;;;5031056;28;20512;-65
2021/10/16 10:55:10;;;;;;;15.48;10.82;;;11.40;94.10;;;;;;5029818;28;20021;-66
2021/10/16 10:57:58;;;;;;;14.93;10.82;;;11.50;94.20;;;;;;5013843;28;20026;-66
2021/10/16 11:00:32;;;;;;;16.05;11.50;;;11.50;93.80;;;;;;5026703;28;20025;-66
2021/10/16 11:02:57;;;;;;;21.20;14.35;;;11.50;93.80;;;;;;5033211;28;20048;-66
2021/10/16 11:05:36;;;;;;;13.23;9.82;;;11.60;93.90;;;;;;5026863;28;20057;-66
2021/10/16 11:08:10;;;;;;;14.27;11.02;;;11.70;93.90;;;;;;5022328;28;20029;-66
2021/10/16 11:10:37;;;;;;;14.27;10.40;;;11.80;93.70;;;;;;5018275;28;20058;-66
2021/10/16 11:13:20;;;;;;;14.70;10.63;;;11.80;93.60;;;;;;5030815;28;20038;-65
2021/10/16 11:16:00;;;;;;;12.90;9.93;;;11.90;93.60;;;;;;5031912;28;20037;-66
2021/10/16 11:18:26;;;;;;;13.40;9.65;;;11.90;93.40;;;;;;5005681;28;20029;-66
2021/10/16 11:20:53;;;;;;;12.93;9.63;;;11.90;93.40;;;;;;5031029;28;20099;-66
2021/10/16 11:23:21;;;;;;;13.60;9.93;;;12.00;93.40;;;;;;5023239;28;20021;-65
2021/10/16 11:26:04;;;;;;;12.75;9.98;;;12.00;93.40;;;;;;5026950;28;20028;-69
2021/10/16 11:28:32;;;;;;;12.55;9.65;;;12.10;93.40;;;;;;5016810;28;20061;-66
2021/10/16 11:30:59;;;;;;;12.38;9.57;;;12.20;93.30;;;;;;5032581;28;20040;-66
2021/10/16 11:33:28;;;;;;;11.90;9.07;;;12.30;93.30;;;;;;5031312;28;20060;-65
2021/10/16 11:35:56;;;;;;;13.23;10.05;;;12.30;93.20;;;;;;5029955;28;20485;-67
2021/10/16 11:38:34;;;;;;;13.68;9.48;;;12.30;93.10;;;;;;5030223;28;20474;-66
2021/10/16 11:41:01;;;;;;;12.32;8.93;;;12.40;93.00;;;;;;5031193;28;20028;-66
2021/10/16 11:43:38;;;;;;;11.23;9.27;;;12.40;93.00;;;;;;5012412;28;20421;-67
2021/10/16 11:46:13;;;;;;;10.20;8.70;;;12.50;92.90;;;;;;5030426;28;20056;-66
2021/10/16 11:48:39;;;;;;;11.00;8.73;;;12.50;92.80;;;;;;5006023;28;20034;-66
2021/10/16 11:51:07;;;;;;;12.25;9.13;;;12.60;92.60;;;;;;5014867;28;20029;-66
2021/10/16 11:53:35;;;;;;;13.27;9.70;;;12.70;92.40;;;;;;5024272;28;20025;-66
2021/10/16 11:56:09;;;;;;;12.05;9.43;;;12.90;92.40;;;;;;5028847;28;20025;-67
2021/10/16 11:58:35;;;;;;;10.90;8.70;;;12.90;92.20;;;;;;5029413;28;20029;-66
2021/10/16 12:01:05;;;;;;;11.82;9.43;;;12.90;92.10;;;;;;5031196;28;20033;-66
2021/10/16 12:03:41;;;;;;;11.65;9.35;;;13.10;92.20;;;;;;5012292;28;20029;-68
2021/10/16 12:06:18;;;;;;;10.18;8.15;;;13.30;92.20;;;;;;5027911;28;20405;-66
2021/10/16 12:08:54;;;;;;;10.73;7.97;;;13.60;91.90;;;;;;5010360;28;20033;-67
2021/10/16 12:11:21;;;;;;;10.20;8.48;;;13.70;91.60;;;;;;5026162;28;20352;-67
2021/10/16 12:14:06;;;;;;;9.77;7.70;;;13.90;91.70;;;;;;5029490;28;20049;-67
2021/10/16 12:16:37;;;;;;;10.30;8.02;;;14.20;91.10;;;;;;5030823;28;20532;-67
2021/10/16 12:19:09;;;;;;;8.70;7.38;;;14.30;91.00;;;;;;5010871;28;20163;-67
2021/10/16 12:21:36;;;;;;;;;;;14.40;90.90;;;;;;5035794;28;20044;-68
2021/10/16 12:24:10;;;;;;;7.03;5.88;;;14.60;91.20;;;;;;5030697;28;20005;-66
2021/10/16 12:26:37;;;;;;;10.45;7.85;;;14.70;90.70;;;;;;5027591;28;20447;-65
2021/10/16 12:29:05;;;;;;;10.65;8.15;;;14.80;90.60;;;;;;5022685;28;20048;-65
2021/10/16 12:31:47;;;;;;;8.50;7.40;;;14.90;90.80;;;;;;5029629;28;20021;-66
2021/10/16 12:34:16;;;;;;;8.98;7.00;;;15.10;91.10;;;;;;5029376;28;20021;-66
2021/10/16 12:36:49;;;;;;;7.35;6.50;;;15.10;90.70;;;;;;5029917;28;20045;-66
2021/10/16 12:39:31;;;;;;;8.35;7.10;;;15.10;90.80;;;;;;5030663;28;20025;-66
2021/10/16 12:41:58;;;;;;;8.52;7.43;;;15.10;91.20;;;;;;5029647;28;20052;-65
2021/10/16 12:44:28;;;;;;;7.80;6.63;;;15.10;92.20;;;;;;5010621;28;20076;-66